createdAt,value
2023-04-27T00:00:10.980Z,53.64
2023-04-27T00:01:10.938Z,53.93
2023-04-27T00:02:11.019Z,53.93
2023-04-27T00:03:11.145Z,53.83
2023-04-27T00:04:11.081Z,53.74
2023-04-27T00:05:11.124Z,54.03
2023-04-27T00:06:11.063Z,53.64
2023-04-27T00:07:10.934Z,53.93
2023-04-27T00:08:10.923Z,53.64
2023-04-27T00:09:10.965Z,54.03
2023-04-27T00:10:10.928Z,53.74
2023-04-27T00:11:10.904Z,53.93
2023-04-27T00:12:10.901Z,54.03
2023-04-27T00:13:10.886Z,53.67
2023-04-27T00:14:10.915Z,53.93
2023-04-27T00:15:10.904Z,53.93
2023-04-27T00:16:10.921Z,53.93
2023-04-27T00:17:10.904Z,54.32
2023-04-27T00:18:10.924Z,54.22
2023-04-27T00:19:10.932Z,53.96
2023-04-27T00:20:10.875Z,54.03
2023-04-27T00:21:10.869Z,54.12
2023-04-27T00:22:10.874Z,54.03
2023-04-27T00:23:10.856Z,53.93
2023-04-27T00:24:10.864Z,54.15
2023-04-27T00:25:10.851Z,54.12
2023-04-27T00:26:10.842Z,54.41
2023-04-27T00:27:10.834Z,54.32
2023-04-27T00:28:10.827Z,54.12
2023-04-27T00:29:10.909Z,53.93
2023-04-27T00:30:10.810Z,53.93
2023-04-27T00:31:10.802Z,54.12
2023-04-27T00:32:10.984Z,53.93
2023-04-27T00:33:10.834Z,53.93
2023-04-27T00:34:10.820Z,53.93
2023-04-27T00:35:10.784Z,54.03
2023-04-27T00:36:10.796Z,53.64
2023-04-27T00:37:10.800Z,53.55
2023-04-27T00:38:10.828Z,54.12
2023-04-27T00:39:10.831Z,53.96
2023-04-27T00:40:10.803Z,54.05
2023-04-27T00:41:10.791Z,54.12
2023-04-27T00:42:10.766Z,53.93
2023-04-27T00:43:10.766Z,53.93
2023-04-27T00:44:10.767Z,54.24
2023-04-27T00:45:10.762Z,54.05
2023-04-27T00:46:10.790Z,54.05
2023-04-27T00:47:10.742Z,53.96
2023-04-27T00:48:10.735Z,54.05
2023-04-27T00:49:10.757Z,54.12
2023-04-27T00:50:10.742Z,54.15
2023-04-27T00:51:10.730Z,54.22
2023-04-27T00:52:10.727Z,53.96
2023-04-27T00:53:10.710Z,53.96
2023-04-27T00:54:10.729Z,54.03
2023-04-27T00:55:10.705Z,54.24
2023-04-27T00:56:10.697Z,54.05
2023-04-27T00:57:10.690Z,53.96
2023-04-27T00:58:10.683Z,54.34
2023-04-27T00:59:10.716Z,54.15
2023-04-27T01:00:10.700Z,53.93
2023-04-27T01:01:10.690Z,54.44
2023-04-27T01:02:10.730Z,54.24
2023-04-27T01:03:10.914Z,54.05
2023-04-27T01:04:10.883Z,54.15
2023-04-27T01:05:10.674Z,54.03
2023-04-27T01:06:10.638Z,54.15
2023-04-27T01:07:10.661Z,54.05
2023-04-27T01:08:10.649Z,54.34
2023-04-27T01:09:10.638Z,54.05
2023-04-27T01:10:10.662Z,54.44
2023-04-27T01:11:10.638Z,54.15
2023-04-27T01:12:10.639Z,54.05
2023-04-27T01:13:10.622Z,54.72
2023-04-27T01:14:10.602Z,54.05
2023-04-27T01:15:10.595Z,54.15
2023-04-27T01:16:10.596Z,54.05
2023-04-27T01:17:10.879Z,54.24
2023-04-27T01:18:10.627Z,54.63
2023-04-27T01:19:10.694Z,53.96
2023-04-27T01:20:10.633Z,53.96
2023-04-27T01:21:10.570Z,53.96
2023-04-27T01:22:10.598Z,54.15
2023-04-27T01:23:10.574Z,54.15
2023-04-27T01:24:10.583Z,54.05
2023-04-27T01:25:10.576Z,54.15
2023-04-27T01:26:10.594Z,54.15
2023-04-27T01:27:10.545Z,54.15
2023-04-27T01:28:10.545Z,54.15
2023-04-27T01:29:10.575Z,54.24
2023-04-27T01:30:10.548Z,54.15
2023-04-27T01:31:10.642Z,54.15
2023-04-27T01:32:10.527Z,54.15
2023-04-27T01:33:10.520Z,54.15
2023-04-27T01:34:10.512Z,54.05
2023-04-27T01:35:10.533Z,54.15
2023-04-27T01:36:10.510Z,54.44
2023-04-27T01:37:10.505Z,54.24
2023-04-27T01:38:10.502Z,54.24
2023-04-27T01:39:10.531Z,54.63
2023-04-27T01:40:10.538Z,54.53
2023-04-27T01:41:10.540Z,54.34
2023-04-27T01:42:10.598Z,54.34
2023-04-27T01:43:10.537Z,54.34
2023-04-27T01:44:10.474Z,54.72
2023-04-27T01:45:10.480Z,54.34
2023-04-27T01:46:10.574Z,54.44
2023-04-27T01:47:10.467Z,54.53
2023-04-27T01:48:10.480Z,54.44
2023-04-27T01:49:10.461Z,54.34
2023-04-27T01:50:10.463Z,54.44
2023-04-27T01:51:10.463Z,54.53
2023-04-27T01:52:10.451Z,54.53
2023-04-27T01:53:10.433Z,54.63
2023-04-27T01:54:10.422Z,54.53
2023-04-27T01:55:10.426Z,54.63
2023-04-27T01:56:10.425Z,54.34
2023-04-27T01:57:10.420Z,54.44
2023-04-27T01:58:10.434Z,54.24
2023-04-27T01:59:10.427Z,54.34
2023-04-27T02:00:10.405Z,54.34
2023-04-27T02:01:10.419Z,54.15
2023-04-27T02:02:10.439Z,54.32
2023-04-27T02:03:10.459Z,54.53
2023-04-27T02:04:10.475Z,54.53
2023-04-27T02:05:10.376Z,54.50
2023-04-27T02:06:10.370Z,54.24
2023-04-27T02:07:10.379Z,54.63
2023-04-27T02:08:10.368Z,54.44
2023-04-27T02:09:10.372Z,54.60
2023-04-27T02:10:10.365Z,54.53
2023-04-27T02:11:10.377Z,54.24
2023-04-27T02:12:10.344Z,54.53
2023-04-27T02:13:10.336Z,54.53
2023-04-27T02:14:10.365Z,54.44
2023-04-27T02:15:10.342Z,54.44
2023-04-27T02:16:10.356Z,54.53
2023-04-27T02:17:10.340Z,54.44
2023-04-27T02:18:10.363Z,54.44
2023-04-27T02:19:10.318Z,54.44
2023-04-27T02:20:10.299Z,54.34
2023-04-27T02:21:10.332Z,54.41
2023-04-27T02:22:10.305Z,54.63
2023-04-27T02:23:10.300Z,54.44
2023-04-27T02:24:10.305Z,54.34
2023-04-27T02:25:10.300Z,54.72
2023-04-27T02:26:10.270Z,54.72
2023-04-27T02:27:10.329Z,54.50
2023-04-27T02:28:10.263Z,54.34
2023-04-27T02:29:10.320Z,54.53
2023-04-27T02:30:10.423Z,54.34
2023-04-27T02:31:10.303Z,54.63
2023-04-27T02:32:10.267Z,54.53
2023-04-27T02:33:10.342Z,54.70
2023-04-27T02:34:10.244Z,54.53
2023-04-27T02:35:10.228Z,54.32
2023-04-27T02:36:10.223Z,54.72
2023-04-27T02:37:10.242Z,54.44
2023-04-27T02:38:10.228Z,54.63
2023-04-27T02:39:10.217Z,54.63
2023-04-27T02:40:10.228Z,54.72
2023-04-27T02:41:10.215Z,54.72
2023-04-27T02:42:10.215Z,54.82
2023-04-27T02:43:10.211Z,54.79
2023-04-27T02:44:10.217Z,54.72
2023-04-27T02:45:10.203Z,54.70
2023-04-27T02:46:10.408Z,54.79
2023-04-27T02:47:10.215Z,54.44
2023-04-27T02:48:10.227Z,54.44
2023-04-27T02:49:10.161Z,54.44
2023-04-27T02:50:10.157Z,54.79
2023-04-27T02:51:10.156Z,54.72
2023-04-27T02:52:10.163Z,54.70
2023-04-27T02:53:10.146Z,54.60
2023-04-27T02:54:10.165Z,54.72
2023-04-27T02:55:10.154Z,54.82
2023-04-27T02:56:10.130Z,54.82
2023-04-27T02:57:10.123Z,54.82
2023-04-27T02:58:10.132Z,54.89
2023-04-27T02:59:10.140Z,55.18
2023-04-27T03:00:10.125Z,55.08
2023-04-27T03:01:10.181Z,55.08
2023-04-27T03:02:10.119Z,55.08
2023-04-27T03:03:10.313Z,55.11
2023-04-27T03:04:10.329Z,55.08
2023-04-27T03:05:10.095Z,55.08
2023-04-27T03:06:10.094Z,54.99
2023-04-27T03:07:10.096Z,54.99
2023-04-27T03:08:10.091Z,54.99
2023-04-27T03:09:10.087Z,55.08
2023-04-27T03:10:10.057Z,55.08
2023-04-27T03:11:10.076Z,54.99
2023-04-27T03:12:10.071Z,54.91
2023-04-27T03:13:10.064Z,55.18
2023-04-27T03:14:10.058Z,54.79
2023-04-27T03:15:10.037Z,54.89
2023-04-27T03:16:10.070Z,54.70
2023-04-27T03:17:10.033Z,54.79
2023-04-27T03:18:10.069Z,54.79
2023-04-27T03:19:10.031Z,54.79
2023-04-27T03:20:10.021Z,54.79
2023-04-27T03:21:10.043Z,55.18
2023-04-27T03:22:09.998Z,55.18
2023-04-27T03:23:10.028Z,54.99
2023-04-27T03:24:10.028Z,54.89
2023-04-27T03:25:10.012Z,54.99
2023-04-27T03:26:09.998Z,55.18
2023-04-27T03:27:09.993Z,55.08
2023-04-27T03:28:09.991Z,54.70
2023-04-27T03:29:09.996Z,54.99
2023-04-27T03:30:10.015Z,55.18
2023-04-27T03:31:09.980Z,55.08
2023-04-27T03:32:10.177Z,55.36
2023-04-27T03:33:10.009Z,55.27
2023-04-27T03:34:09.966Z,55.36
2023-04-27T03:35:09.953Z,55.46
2023-04-27T03:36:09.949Z,55.46
2023-04-27T03:37:09.945Z,55.56
2023-04-27T03:38:09.941Z,55.27
2023-04-27T03:39:09.943Z,55.46
2023-04-27T03:40:09.959Z,55.36
2023-04-27T03:41:09.929Z,55.46
2023-04-27T03:42:09.910Z,55.27
2023-04-27T03:43:09.904Z,55.36
2023-04-27T03:44:09.897Z,55.27
2023-04-27T03:45:09.900Z,55.27
2023-04-27T03:46:09.922Z,55.27
2023-04-27T03:47:09.942Z,55.27
2023-04-27T03:48:09.950Z,55.36
2023-04-27T03:49:09.892Z,55.56
2023-04-27T03:50:09.910Z,55.46
2023-04-27T03:51:09.899Z,55.27
2023-04-27T03:52:09.861Z,55.36
2023-04-27T03:53:09.860Z,55.36
2023-04-27T03:54:09.854Z,55.36
2023-04-27T03:55:09.878Z,55.36
2023-04-27T03:56:09.841Z,55.36
2023-04-27T03:57:09.870Z,55.36
2023-04-27T03:58:09.842Z,55.36
2023-04-27T03:59:09.844Z,55.18
2023-04-27T04:00:09.828Z,55.36
2023-04-27T04:01:09.861Z,55.27
2023-04-27T04:02:09.937Z,55.36
2023-04-27T04:03:10.107Z,54.99
2023-04-27T04:04:09.918Z,55.08
2023-04-27T04:05:09.894Z,55.08
2023-04-27T04:06:09.854Z,55.18
2023-04-27T04:07:09.812Z,54.99
2023-04-27T04:08:09.804Z,54.99
2023-04-27T04:09:09.800Z,55.36
2023-04-27T04:10:09.782Z,55.46
2023-04-27T04:11:09.777Z,55.46
2023-04-27T04:12:09.780Z,55.46
2023-04-27T04:13:09.788Z,55.36
2023-04-27T04:14:09.774Z,55.65
2023-04-27T04:15:09.776Z,55.46
2023-04-27T04:16:09.851Z,55.46
2023-04-27T04:17:09.786Z,55.46
2023-04-27T04:18:09.805Z,55.36
2023-04-27T04:19:09.731Z,55.46
2023-04-27T04:20:09.731Z,55.56
2023-04-27T04:21:09.741Z,55.27
2023-04-27T04:22:09.749Z,55.56
2023-04-27T04:23:09.738Z,55.46
2023-04-27T04:24:09.717Z,55.85
2023-04-27T04:25:09.715Z,55.36
2023-04-27T04:26:09.718Z,55.46
2023-04-27T04:27:09.719Z,55.56
2023-04-27T04:28:09.735Z,55.46
2023-04-27T04:29:11.220Z,55.46
2023-04-27T04:30:09.707Z,55.65
2023-04-27T04:31:09.866Z,56.04
2023-04-27T04:32:09.695Z,55.75
2023-04-27T04:33:09.690Z,55.65
2023-04-27T04:34:09.674Z,55.56
2023-04-27T04:35:09.663Z,56.04
2023-04-27T04:36:09.678Z,55.56
2023-04-27T04:37:09.649Z,55.75
2023-04-27T04:38:09.660Z,55.65
2023-04-27T04:39:09.648Z,55.94
2023-04-27T04:40:09.666Z,55.85
2023-04-27T04:41:09.638Z,55.56
2023-04-27T04:42:09.634Z,55.27
2023-04-27T04:43:09.627Z,55.18
2023-04-27T04:44:09.619Z,55.27
2023-04-27T04:45:09.620Z,55.18
2023-04-27T04:46:09.629Z,55.36
2023-04-27T04:47:09.626Z,55.40
2023-04-27T04:48:09.591Z,55.30
2023-04-27T04:49:09.606Z,55.40
2023-04-27T04:50:09.596Z,55.40
2023-04-27T04:51:09.594Z,55.01
2023-04-27T04:52:09.697Z,54.82
2023-04-27T04:53:09.603Z,54.82
2023-04-27T04:54:09.808Z,54.53
2023-04-27T04:55:09.581Z,55.21
2023-04-27T04:56:09.553Z,55.11
2023-04-27T04:57:09.554Z,55.01
2023-04-27T04:58:09.566Z,54.82
2023-04-27T04:59:09.566Z,54.63
2023-04-27T05:00:09.537Z,54.72
2023-04-27T05:01:09.564Z,54.63
2023-04-27T05:02:09.548Z,54.63
2023-04-27T05:03:09.669Z,54.44
2023-04-27T05:04:09.673Z,54.56
2023-04-27T05:05:09.588Z,54.46
2023-04-27T05:06:09.517Z,54.46
2023-04-27T05:07:09.531Z,54.37
2023-04-27T05:08:09.527Z,54.37
2023-04-27T05:09:09.504Z,54.37
2023-04-27T05:10:09.533Z,54.66
2023-04-27T05:11:09.529Z,54.46
2023-04-27T05:12:09.542Z,54.37
2023-04-27T05:13:09.511Z,54.37
2023-04-27T05:14:09.498Z,54.17
2023-04-27T05:15:09.484Z,54.27
2023-04-27T05:16:09.501Z,53.99
2023-04-27T05:17:09.498Z,54.27
2023-04-27T05:18:09.645Z,54.17
2023-04-27T05:19:09.493Z,54.08
2023-04-27T05:20:09.488Z,54.08
2023-04-27T05:21:09.468Z,54.56
2023-04-27T05:22:09.443Z,54.27
2023-04-27T05:23:09.463Z,54.37
2023-04-27T05:24:09.447Z,54.21
2023-04-27T05:25:09.450Z,54.11
2023-04-27T05:26:09.462Z,54.78
2023-04-27T05:27:09.438Z,54.01
2023-04-27T05:28:09.492Z,54.21
2023-04-27T05:29:09.454Z,53.91
2023-04-27T05:30:09.430Z,54.01
2023-04-27T05:31:09.471Z,53.72
2023-04-27T05:32:09.641Z,54.30
2023-04-27T05:33:09.450Z,54.30
2023-04-27T05:34:09.427Z,53.82
2023-04-27T05:35:09.422Z,53.82
2023-04-27T05:36:09.420Z,54.01
2023-04-27T05:37:09.405Z,54.30
2023-04-27T05:38:09.400Z,54.11
2023-04-27T05:39:09.468Z,54.11
2023-04-27T05:40:09.399Z,54.01
2023-04-27T05:41:09.416Z,54.01
2023-04-27T05:42:09.410Z,54.39
2023-04-27T05:43:09.388Z,54.01
2023-04-27T05:44:09.384Z,54.04
2023-04-27T05:45:09.379Z,54.11
2023-04-27T05:46:09.421Z,54.21
2023-04-27T05:47:09.391Z,54.21
2023-04-27T05:48:09.360Z,54.11
2023-04-27T05:49:09.379Z,54.11
2023-04-27T05:50:09.380Z,54.11
2023-04-27T05:51:09.373Z,54.01
2023-04-27T05:52:09.388Z,54.52
2023-04-27T05:53:09.381Z,54.11
2023-04-27T05:54:09.344Z,54.13
2023-04-27T05:55:09.375Z,54.01
2023-04-27T05:56:09.359Z,54.23
2023-04-27T05:57:09.340Z,54.30
2023-04-27T05:58:09.555Z,54.71
2023-04-27T05:59:09.361Z,54.88
2023-04-27T06:00:09.352Z,54.52
2023-04-27T06:01:09.353Z,54.52
2023-04-27T06:02:09.415Z,55.00
2023-04-27T06:03:09.525Z,54.42
2023-04-27T06:04:09.505Z,54.58
2023-04-27T06:05:09.370Z,54.42
2023-04-27T06:06:09.331Z,54.42
2023-04-27T06:07:10.274Z,54.23
2023-04-27T06:08:09.333Z,54.42
2023-04-27T06:09:09.298Z,54.39
2023-04-27T06:10:09.305Z,54.52
2023-04-27T06:11:09.316Z,54.68
2023-04-27T06:12:09.315Z,54.58
2023-04-27T06:13:09.297Z,54.42
2023-04-27T06:14:09.339Z,54.90
2023-04-27T06:15:09.323Z,54.90
2023-04-27T06:16:09.348Z,54.80
2023-04-27T06:17:09.281Z,54.61
2023-04-27T06:18:09.290Z,54.68
2023-04-27T06:19:09.271Z,54.90
2023-04-27T06:20:09.273Z,55.07
2023-04-27T06:21:09.280Z,55.10
2023-04-27T06:22:09.281Z,55.16
2023-04-27T06:23:09.269Z,55.26
2023-04-27T06:24:09.273Z,54.68
2023-04-27T06:25:09.277Z,54.88
2023-04-27T06:26:09.251Z,54.88
2023-04-27T06:27:09.293Z,55.10
2023-04-27T06:28:09.262Z,55.07
2023-04-27T06:29:09.254Z,55.26
2023-04-27T06:30:09.254Z,55.35
2023-04-27T06:31:09.262Z,55.45
2023-04-27T06:32:09.309Z,55.35
2023-04-27T06:33:09.282Z,55.45
2023-04-27T06:34:09.270Z,55.55
2023-04-27T06:35:09.228Z,55.35
2023-04-27T06:36:09.219Z,55.45
2023-04-27T06:37:09.214Z,55.45
2023-04-27T06:38:09.228Z,55.16
2023-04-27T06:39:09.209Z,55.16
2023-04-27T06:40:09.249Z,55.55
2023-04-27T06:41:09.211Z,55.55
2023-04-27T06:42:09.210Z,55.83
2023-04-27T06:43:09.206Z,56.02
2023-04-27T06:44:09.209Z,55.74
2023-04-27T06:45:09.197Z,55.64
2023-04-27T06:46:09.237Z,55.64
2023-04-27T06:47:09.371Z,55.83
2023-04-27T06:48:09.259Z,55.55
2023-04-27T06:49:09.192Z,55.55
2023-04-27T06:50:09.194Z,55.55
2023-04-27T06:51:09.194Z,55.64
2023-04-27T06:52:09.181Z,56.12
2023-04-27T06:53:09.174Z,55.64
2023-04-27T06:54:09.199Z,55.74
2023-04-27T06:55:09.172Z,55.64
2023-04-27T06:56:09.170Z,55.83
2023-04-27T06:57:09.151Z,55.83
2023-04-27T06:58:09.158Z,55.55
2023-04-27T06:59:09.188Z,55.74
2023-04-27T07:00:09.160Z,55.83
2023-04-27T07:01:09.166Z,55.93
2023-04-27T07:02:09.165Z,55.93
2023-04-27T07:03:09.283Z,55.64
2023-04-27T07:04:09.229Z,55.74
2023-04-27T07:05:09.122Z,55.64
2023-04-27T07:06:09.115Z,55.83
2023-04-27T07:07:09.123Z,55.83
2023-04-27T07:08:09.406Z,55.83
2023-04-27T07:09:20.185Z,56.02
2023-04-27T07:10:09.134Z,55.74
2023-04-27T07:11:09.099Z,56.02
2023-04-27T07:12:09.116Z,56.22
2023-04-27T07:13:09.602Z,56.22
2023-04-27T07:14:09.112Z,56.31
2023-04-27T07:15:09.093Z,56.31
2023-04-27T07:16:09.126Z,56.22
2023-04-27T07:17:09.122Z,56.31
2023-04-27T07:18:09.174Z,56.31
2023-04-27T07:19:09.079Z,56.22
2023-04-27T07:20:09.085Z,55.93
2023-04-27T07:21:09.089Z,56.22
2023-04-27T07:22:09.070Z,56.02
2023-04-27T07:23:09.073Z,56.02
2023-04-27T07:24:09.080Z,56.02
2023-04-27T07:25:09.072Z,56.02
2023-04-27T07:26:09.059Z,56.22
2023-04-27T07:27:09.103Z,56.22
2023-04-27T07:28:09.079Z,55.93
2023-04-27T07:29:25.510Z,56.22
2023-04-27T07:30:09.048Z,56.22
2023-04-27T07:31:09.118Z,56.12
2023-04-27T07:32:09.261Z,56.22
2023-04-27T07:33:09.087Z,56.22
2023-04-27T07:34:09.049Z,56.22
2023-04-27T07:35:09.016Z,56.22
2023-04-27T07:36:09.026Z,56.12
2023-04-27T07:37:09.027Z,56.12
2023-04-27T07:38:09.065Z,56.12
2023-04-27T07:39:09.019Z,56.12
2023-04-27T07:40:09.004Z,56.02
2023-04-27T07:41:09.018Z,56.22
2023-04-27T07:42:09.016Z,56.12
2023-04-27T07:43:09.017Z,56.31
2023-04-27T07:44:09.004Z,56.22
2023-04-27T07:45:09.001Z,56.22
2023-04-27T07:46:09.037Z,56.31
2023-04-27T07:47:08.983Z,56.31
2023-04-27T07:48:09.017Z,56.31
2023-04-27T07:49:09.019Z,56.22
2023-04-27T07:50:09.013Z,56.41
2023-04-27T07:51:08.987Z,56.63
2023-04-27T07:52:08.990Z,55.96
2023-04-27T07:53:08.983Z,55.86
2023-04-27T07:54:08.965Z,55.55
2023-04-27T07:55:08.973Z,55.55
2023-04-27T07:56:08.972Z,55.55
2023-04-27T07:57:08.967Z,55.83
2023-04-27T07:58:08.967Z,55.86
2023-04-27T07:59:08.943Z,55.86
2023-04-27T08:00:08.963Z,55.86
2023-04-27T08:01:08.968Z,55.67
2023-04-27T08:02:19.056Z,56.05
2023-04-27T08:03:09.298Z,55.86
2023-04-27T08:04:09.233Z,55.77
2023-04-27T08:05:09.358Z,55.67
2023-04-27T08:06:09.387Z,55.77
2023-04-27T08:07:09.620Z,55.67
2023-04-27T08:08:08.966Z,55.86
2023-04-27T08:09:08.939Z,55.57
2023-04-27T08:10:08.948Z,55.96
2023-04-27T08:11:08.918Z,55.96
2023-04-27T08:12:08.920Z,55.96
2023-04-27T08:13:08.921Z,56.15
2023-04-27T08:14:08.931Z,56.05
2023-04-27T08:15:08.891Z,55.96
2023-04-27T08:16:08.935Z,55.47
2023-04-27T08:17:08.950Z,55.57
2023-04-27T08:18:08.975Z,55.77
2023-04-27T08:19:08.893Z,55.67
2023-04-27T08:20:08.883Z,55.47
2023-04-27T08:21:08.888Z,55.96
2023-04-27T08:22:08.911Z,55.77
2023-04-27T08:23:08.864Z,55.67
2023-04-27T08:24:08.873Z,55.67
2023-04-27T08:25:08.900Z,55.77
2023-04-27T08:26:08.887Z,55.96
2023-04-27T08:27:08.852Z,55.67
2023-04-27T08:28:08.857Z,55.57
2023-04-27T08:35:20.177Z,55.86
2023-04-27T08:36:20.185Z,55.86
2023-04-27T08:37:20.363Z,55.86
2023-04-27T08:38:20.194Z,55.67
2023-04-27T08:39:20.162Z,55.47
2023-04-27T08:40:20.172Z,55.57
2023-04-27T08:41:22.017Z,55.77
2023-04-27T08:42:20.169Z,55.67
2023-04-27T08:43:20.169Z,55.57
2023-04-27T08:44:20.156Z,55.57
2023-04-27T08:45:20.157Z,55.57
2023-04-27T08:46:20.279Z,55.57
2023-04-27T08:47:25.749Z,55.47
2023-04-27T08:48:20.192Z,55.57
2023-04-27T08:49:20.371Z,55.57
2023-04-27T08:50:20.143Z,55.57
2023-04-27T08:51:20.139Z,55.57
2023-04-27T08:52:20.137Z,55.57
2023-04-27T08:53:20.167Z,55.57
2023-04-27T08:54:20.128Z,55.57
2023-04-27T08:55:20.132Z,55.47
2023-04-27T08:56:20.110Z,55.47
2023-04-27T08:57:20.115Z,55.47
2023-04-27T08:58:20.127Z,55.47
2023-04-27T08:59:20.117Z,55.47
2023-04-27T09:00:20.111Z,55.29
2023-04-27T09:01:20.149Z,55.57
2023-04-27T09:02:20.192Z,55.57
2023-04-27T09:03:20.266Z,55.57
2023-04-27T09:04:20.471Z,55.47
2023-04-27T09:05:20.137Z,55.47
2023-04-27T09:06:20.109Z,55.67
2023-04-27T09:07:20.107Z,55.55
2023-04-27T09:08:20.096Z,55.57
2023-04-27T09:09:20.104Z,55.38
2023-04-27T09:10:20.094Z,55.57
2023-04-27T09:11:20.086Z,55.57
2023-04-27T09:12:20.092Z,55.47
2023-04-27T09:13:20.066Z,55.86
2023-04-27T09:14:20.079Z,55.57
2023-04-27T09:15:20.090Z,56.05
2023-04-27T09:16:20.150Z,56.05
2023-04-27T09:17:20.085Z,55.67
2023-04-27T09:18:20.043Z,56.05
2023-04-27T09:19:20.040Z,55.77
2023-04-27T09:20:20.095Z,55.67
2023-04-27T09:21:20.040Z,55.67
2023-04-27T09:22:20.026Z,55.86
2023-04-27T09:23:20.045Z,55.57
2023-04-27T09:24:20.060Z,55.57
2023-04-27T09:25:20.173Z,55.57
2023-04-27T09:26:20.025Z,55.57
2023-04-27T09:27:20.035Z,55.96
2023-04-27T09:28:20.032Z,56.15
2023-04-27T09:29:20.029Z,55.77
2023-04-27T09:30:20.018Z,55.77
2023-04-27T09:31:20.061Z,55.67
2023-04-27T09:32:20.003Z,55.77
2023-04-27T09:33:20.029Z,55.96
2023-04-27T09:34:20.018Z,55.57
2023-04-27T09:35:20.004Z,55.77
2023-04-27T09:36:19.990Z,55.77
2023-04-27T09:37:19.992Z,55.86
2023-04-27T09:38:19.979Z,55.77
2023-04-27T09:39:19.990Z,55.86
2023-04-27T09:40:20.067Z,55.57
2023-04-27T09:41:20.003Z,55.77
2023-04-27T09:42:19.977Z,55.57
2023-04-27T09:43:19.988Z,55.96
2023-04-27T09:44:19.985Z,55.86
2023-04-27T09:45:19.984Z,55.86
2023-04-27T09:46:19.986Z,56.05
2023-04-27T09:47:19.997Z,56.53
2023-04-27T09:48:19.949Z,56.24
2023-04-27T09:49:19.948Z,56.24
2023-04-27T09:50:19.996Z,56.34
2023-04-27T09:51:19.961Z,56.24
2023-04-27T09:52:19.935Z,56.15
2023-04-27T09:53:19.946Z,56.15
2023-04-27T09:54:19.956Z,56.24
2023-04-27T09:55:19.949Z,56.34
2023-04-27T09:56:19.936Z,56.34
2023-04-27T09:57:19.963Z,56.24
2023-04-27T09:58:19.924Z,56.34
2023-04-27T09:59:19.927Z,56.24
2023-04-27T10:00:19.923Z,56.05
2023-04-27T10:01:19.967Z,56.24
2023-04-27T10:02:25.413Z,56.05
2023-04-27T10:03:19.965Z,56.15
2023-04-27T10:04:19.997Z,56.15
2023-04-27T10:05:20.008Z,56.15
2023-04-27T10:06:19.900Z,56.34
2023-04-27T10:07:19.912Z,56.34
2023-04-27T10:08:19.887Z,56.53
2023-04-27T10:09:19.893Z,56.34
2023-04-27T10:10:19.992Z,56.34
2023-04-27T10:11:19.889Z,56.34
2023-04-27T10:12:19.884Z,56.44
2023-04-27T10:13:19.898Z,56.34
2023-04-27T10:14:19.885Z,56.05
2023-04-27T10:15:19.899Z,56.15
2023-04-27T10:16:19.912Z,56.24
2023-04-27T10:17:19.872Z,56.53
2023-04-27T10:18:19.869Z,56.34
2023-04-27T10:19:19.879Z,56.24
2023-04-27T10:20:19.875Z,56.53
2023-04-27T10:21:19.851Z,56.34
2023-04-27T10:22:19.848Z,56.63
2023-04-27T10:23:19.845Z,56.82
2023-04-27T10:24:19.852Z,56.92
2023-04-27T10:25:19.834Z,56.82
2023-04-27T10:26:19.836Z,56.82
2023-04-27T10:27:19.855Z,56.73
2023-04-27T10:28:19.877Z,56.92
2023-04-27T10:29:19.846Z,56.92
2023-04-27T10:30:19.832Z,56.82
2023-04-27T10:31:19.879Z,56.82
2023-04-27T10:32:19.816Z,57.01
2023-04-27T10:33:19.829Z,56.92
2023-04-27T10:34:21.460Z,56.63
2023-04-27T10:35:19.827Z,56.73
2023-04-27T10:36:19.825Z,56.53
2023-04-27T10:37:19.884Z,56.73
2023-04-27T10:38:19.827Z,56.92
2023-04-27T10:39:46.962Z,56.63
2023-04-27T10:40:19.794Z,56.82
2023-04-27T10:41:19.803Z,56.92
2023-04-27T10:42:19.807Z,56.82
2023-04-27T10:43:19.794Z,57.01
2023-04-27T10:44:19.802Z,56.92
2023-04-27T10:45:19.824Z,56.92
2023-04-27T10:46:19.865Z,57.11
2023-04-27T10:47:19.825Z,57.11
2023-04-27T10:48:19.794Z,57.11
2023-04-27T10:49:19.798Z,57.11
2023-04-27T10:50:19.773Z,57.21
2023-04-27T10:51:19.785Z,57.21
2023-04-27T10:52:19.774Z,57.21
2023-04-27T10:53:19.758Z,57.11
2023-04-27T10:54:19.755Z,57.11
2023-04-27T10:55:19.756Z,57.21
2023-04-27T10:56:19.857Z,57.21
2023-04-27T10:57:19.760Z,57.40
2023-04-27T10:58:19.768Z,57.40
2023-04-27T10:59:19.764Z,57.50
2023-04-27T11:00:19.746Z,57.40
2023-04-27T11:01:19.780Z,57.30
2023-04-27T11:02:19.809Z,57.50
2023-04-27T11:03:20.019Z,57.59
2023-04-27T11:04:19.773Z,57.59
2023-04-27T11:05:19.738Z,57.59
2023-04-27T11:06:19.736Z,57.30
2023-04-27T11:07:19.709Z,57.30
2023-04-27T11:08:19.737Z,57.30
2023-04-27T11:09:19.730Z,57.30
2023-04-27T11:10:19.745Z,57.40
2023-04-27T11:11:20.069Z,57.21
2023-04-27T11:12:19.706Z,57.78
2023-04-27T11:13:19.742Z,57.78
2023-04-27T11:14:19.710Z,57.21
2023-04-27T11:15:19.716Z,57.59
2023-04-27T11:16:19.741Z,57.50
2023-04-27T11:17:19.797Z,57.59
2023-04-27T11:18:19.685Z,57.59
2023-04-27T11:19:19.696Z,57.59
2023-04-27T11:20:19.678Z,57.68
2023-04-27T11:21:19.692Z,57.68
2023-04-27T11:22:19.668Z,57.68
2023-04-27T11:23:19.678Z,57.50
2023-04-27T11:24:19.657Z,57.40
2023-04-27T11:25:19.683Z,57.59
2023-04-27T11:26:19.659Z,57.50
2023-04-27T11:27:19.647Z,57.59
2023-04-27T11:28:19.658Z,57.59
2023-04-27T11:29:19.653Z,57.30
2023-04-27T11:30:19.700Z,57.40
2023-04-27T11:31:19.683Z,57.50
2023-04-27T11:32:19.642Z,57.50
2023-04-27T11:33:19.660Z,57.21
2023-04-27T11:34:19.745Z,57.59
2023-04-27T11:35:19.688Z,57.40
2023-04-27T11:36:19.630Z,57.40
2023-04-27T11:37:19.669Z,57.40
2023-04-27T11:38:19.658Z,57.59
2023-04-27T11:39:19.725Z,57.50
2023-04-27T11:40:20.162Z,57.68
2023-04-27T11:41:19.625Z,57.78
2023-04-27T11:42:19.626Z,57.78
2023-04-27T11:43:19.599Z,57.40
2023-04-27T11:44:19.591Z,57.78
2023-04-27T11:45:19.598Z,57.78
2023-04-27T11:46:19.639Z,57.68
2023-04-27T11:47:19.609Z,57.50
2023-04-27T11:48:19.594Z,58.36
2023-04-27T11:49:19.618Z,58.07
2023-04-27T11:50:19.580Z,58.36
2023-04-27T11:51:19.581Z,58.17
2023-04-27T11:52:19.613Z,58.17
2023-04-27T11:53:19.580Z,58.26
2023-04-27T11:54:19.558Z,58.17
2023-04-27T11:55:19.585Z,58.17
2023-04-27T11:56:19.608Z,58.17
2023-04-27T11:57:19.579Z,58.17
2023-04-27T11:58:19.556Z,57.97
2023-04-27T11:59:19.557Z,57.78
2023-04-27T12:00:19.566Z,57.97
2023-04-27T12:01:27.739Z,57.97
2023-04-27T12:02:19.619Z,57.97
2023-04-27T12:03:19.775Z,58.07
2023-04-27T12:04:20.247Z,57.97
2023-04-27T12:05:19.739Z,57.78
2023-04-27T12:06:32.221Z,57.88
2023-04-27T12:07:19.542Z,57.78
2023-04-27T12:08:19.537Z,58.07
2023-04-27T12:09:19.516Z,58.07
2023-04-27T12:10:19.541Z,57.97
2023-04-27T12:11:19.529Z,57.78
2023-04-27T12:12:19.523Z,57.78
2023-04-27T12:13:19.520Z,57.97
2023-04-27T12:14:19.498Z,57.97
2023-04-27T12:15:19.494Z,57.97
2023-04-27T12:16:19.504Z,58.07
2023-04-27T12:17:19.499Z,57.97
2023-04-27T12:18:19.497Z,58.17
2023-04-27T12:19:19.511Z,58.07
2023-04-27T12:20:19.491Z,58.07
2023-04-27T12:21:19.512Z,58.17
2023-04-27T12:22:19.477Z,58.07
2023-04-27T12:23:19.479Z,58.17
2023-04-27T12:24:19.463Z,58.17
2023-04-27T12:25:19.477Z,58.07
2023-04-27T12:26:19.488Z,58.07
2023-04-27T12:27:19.462Z,57.97
2023-04-27T12:28:19.456Z,57.97
2023-04-27T12:29:19.476Z,58.07
2023-04-27T12:30:19.470Z,58.17
2023-04-27T12:31:19.488Z,58.36
2023-04-27T12:32:19.452Z,57.78
2023-04-27T12:33:19.493Z,57.81
2023-04-27T12:34:19.442Z,57.71
2023-04-27T12:35:19.437Z,57.50
2023-04-27T12:36:19.432Z,57.50
2023-04-27T12:37:19.463Z,57.50
2023-04-27T12:38:19.438Z,57.59
2023-04-27T12:39:19.423Z,57.59
2023-04-27T12:40:19.439Z,57.59
2023-04-27T12:41:19.408Z,57.50
2023-04-27T12:42:19.433Z,57.50
2023-04-27T12:43:19.410Z,57.78
2023-04-27T12:44:19.403Z,57.50
2023-04-27T12:45:19.403Z,57.59
2023-04-27T12:46:19.455Z,57.68
2023-04-27T12:47:40.534Z,57.68
2023-04-27T12:48:19.394Z,57.59
2023-04-27T12:49:19.402Z,57.59
2023-04-27T12:50:19.380Z,57.59
2023-04-27T12:51:19.394Z,57.50
2023-04-27T12:52:19.430Z,57.68
2023-04-27T12:53:19.408Z,57.30
2023-04-27T12:54:19.366Z,57.30
2023-04-27T12:55:32.269Z,57.40
2023-04-27T12:56:19.371Z,57.40
2023-04-27T12:57:19.412Z,57.40
2023-04-27T12:58:19.368Z,57.30